createdAt,value
2019-06-20T00:00:35.378Z,100372.88
2019-06-20T00:03:04.175Z,100371.10
2019-06-20T00:05:32.880Z,100368.89
2019-06-20T00:08:01.609Z,100350.58
2019-06-20T00:10:30.538Z,100361.02
2019-06-20T00:13:00.720Z,100361.84
2019-06-20T00:15:29.921Z,100381.70
2019-06-20T00:17:58.646Z,100393.99
2019-06-20T00:20:27.277Z,100399.95
2019-06-20T00:22:56.535Z,100411.42
2019-06-20T00:25:25.156Z,100417.75
2019-06-20T00:27:54.108Z,100426.27
2019-06-20T00:30:22.789Z,100435.55
2019-06-20T00:32:51.418Z,100443.73
2019-06-20T00:35:20.810Z,100443.86
2019-06-20T00:37:49.792Z,100451.03
2019-06-20T00:40:18.625Z,100443.92
2019-06-20T00:42:47.662Z,100434.05
2019-06-20T00:45:16.662Z,100447.53
2019-06-20T00:47:45.671Z,100477.80
2019-06-20T00:50:14.427Z,100491.13
2019-06-20T00:52:43.313Z,100515.23
2019-06-20T00:55:12.473Z,100489.88
2019-06-20T00:57:42.041Z,100503.97
2019-06-20T01:00:12.191Z,100506.55
2019-06-20T01:02:41.247Z,100498.77
2019-06-20T01:05:10.288Z,100488.95
2019-06-20T01:07:39.274Z,100492.11
2019-06-20T01:10:08.375Z,100494.16
2019-06-20T01:12:37.835Z,100491.96
2019-06-20T01:15:07.301Z,100490.52
2019-06-20T01:17:36.275Z,100483.80
2019-06-20T01:20:06.625Z,100476.23
2019-06-20T01:22:35.854Z,100477.14
2019-06-20T01:25:05.145Z,100470.62
2019-06-20T01:27:34.152Z,100459.86
2019-06-20T01:30:02.907Z,100451.03
2019-06-20T01:32:32.170Z,100451.98
2019-06-20T01:35:01.238Z,100454.74
2019-06-20T01:37:30.542Z,100431.52
2019-06-20T01:39:59.633Z,100421.45
2019-06-20T01:42:28.625Z,100432.05
2019-06-20T01:44:57.322Z,100448.55
2019-06-20T01:47:26.242Z,100454.86
2019-06-20T01:49:55.505Z,100476.41
2019-06-20T01:52:24.499Z,100479.41
2019-06-20T01:54:53.246Z,100486.29
2019-06-20T01:57:22.006Z,100477.95
2019-06-20T01:59:50.720Z,100468.33
2019-06-20T02:02:19.442Z,100468.50
2019-06-20T02:04:48.198Z,100450.30
2019-06-20T02:07:17.334Z,100426.22
2019-06-20T02:09:46.382Z,100424.63
2019-06-20T02:12:15.332Z,100405.46
2019-06-20T02:14:44.315Z,100397.83
2019-06-20T02:17:13.001Z,100384.41
2019-06-20T02:19:41.686Z,100376.90
2019-06-20T02:22:10.354Z,100375.67
2019-06-20T02:24:39.415Z,100371.23
2019-06-20T02:27:08.681Z,100356.13
2019-06-20T02:29:37.664Z,100321.83
2019-06-20T02:32:06.763Z,100327.89
2019-06-20T02:34:35.754Z,100344.27
2019-06-20T02:37:04.477Z,100346.22
2019-06-20T02:39:33.847Z,100342.79
2019-06-20T02:42:02.944Z,100329.97
2019-06-20T02:44:32.196Z,100317.41
2019-06-20T02:47:02.727Z,100321.45
2019-06-20T02:49:31.480Z,100332.45
2019-06-20T02:52:00.790Z,100337.45
2019-06-20T02:54:29.845Z,100339.33
2019-06-20T02:56:59.446Z,100352.56
2019-06-20T02:59:28.497Z,100355.04
2019-06-20T03:01:57.247Z,100365.83
2019-06-20T03:04:26.246Z,100372.86
2019-06-20T03:06:55.176Z,100374.92
2019-06-20T03:09:24.125Z,100401.06
2019-06-20T03:11:53.122Z,100398.47
2019-06-20T03:14:22.057Z,100390.42
2019-06-20T03:16:51.050Z,100387.69
2019-06-20T03:19:20.099Z,100382.11
2019-06-20T03:21:48.835Z,100384.28
2019-06-20T03:24:18.192Z,100380.83
2019-06-20T03:26:47.189Z,100382.88
2019-06-20T03:29:16.279Z,100384.40
2019-06-20T03:31:45.283Z,100398.28
2019-06-20T03:34:14.268Z,100423.46
2019-06-20T03:36:43.572Z,100427.06
2019-06-20T03:39:12.362Z,100423.61
2019-06-20T03:41:41.020Z,100428.11
2019-06-20T03:44:10.142Z,100433.03
2019-06-20T03:46:39.198Z,100427.25
2019-06-20T03:49:08.240Z,100421.13
2019-06-20T03:51:37.226Z,100424.38
2019-06-20T03:54:05.970Z,100438.62
2019-06-20T03:56:34.776Z,100447.27
2019-06-20T03:59:03.816Z,100443.53
2019-06-20T04:01:33.094Z,100454.03
2019-06-20T04:04:02.095Z,100436.85
2019-06-20T04:06:30.897Z,100436.69
2019-06-20T04:08:59.977Z,100427.23
2019-06-20T04:11:28.606Z,100434.08
2019-06-20T04:13:57.631Z,100432.12
2019-06-20T04:16:26.655Z,100434.42
2019-06-20T04:18:55.989Z,100431.68
2019-06-20T04:21:25.047Z,100442.42
2019-06-20T04:23:53.724Z,100436.22
2019-06-20T04:26:22.635Z,100431.90
2019-06-20T04:28:51.679Z,100420.63
2019-06-20T04:31:20.613Z,100440.32
2019-06-20T04:33:49.706Z,100439.38
2019-06-20T04:36:18.469Z,100434.48
2019-06-20T04:38:47.059Z,100439.32
2019-06-20T04:41:16.155Z,100434.70
2019-06-20T04:43:45.473Z,100433.95
2019-06-20T04:46:21.334Z,100430.09
2019-06-20T04:48:50.049Z,100438.00
2019-06-20T04:51:19.427Z,100437.94
2019-06-20T04:53:48.518Z,100429.48
2019-06-20T04:56:17.464Z,100429.02
2019-06-20T04:58:46.127Z,100439.55
2019-06-20T05:01:15.201Z,100442.96
2019-06-20T05:03:43.905Z,100442.54
2019-06-20T05:06:12.652Z,100449.27
2019-06-20T05:08:41.768Z,100462.73
2019-06-20T05:11:11.072Z,100455.70
2019-06-20T05:13:40.515Z,100469.20
2019-06-20T05:16:09.469Z,100467.05
2019-06-20T05:18:38.558Z,100467.61
2019-06-20T05:21:08.298Z,100476.58
2019-06-20T05:23:37.059Z,100475.67
2019-06-20T05:26:06.264Z,100485.73
2019-06-20T05:28:36.174Z,100481.30
2019-06-20T05:31:05.398Z,100482.77
2019-06-20T05:33:34.364Z,100487.14
2019-06-20T05:36:03.871Z,100489.78
2019-06-20T05:38:32.866Z,100488.92
2019-06-20T05:41:01.706Z,100489.69
2019-06-20T05:43:30.399Z,100492.31
2019-06-20T05:46:08.918Z,100489.81
2019-06-20T05:48:30.169Z,100498.00
2019-06-20T05:50:59.297Z,100506.27
2019-06-20T05:53:28.918Z,100507.64
2019-06-20T05:55:57.739Z,100507.80
2019-06-20T05:58:26.438Z,100508.45
2019-06-20T06:00:55.237Z,100502.59
2019-06-20T06:03:24.341Z,100503.72
2019-06-20T06:05:54.602Z,100513.11
2019-06-20T06:08:23.760Z,100506.38
2019-06-20T06:10:52.544Z,100498.87
2019-06-20T06:13:21.229Z,100504.58
2019-06-20T06:15:49.965Z,100496.36
2019-06-20T06:18:18.746Z,100501.23
2019-06-20T06:20:47.702Z,100504.38
2019-06-20T06:23:16.371Z,100510.66
2019-06-20T06:25:45.485Z,100506.33
2019-06-20T06:28:14.268Z,100507.16
2019-06-20T06:30:43.433Z,100506.92
2019-06-20T06:33:12.214Z,100514.83
2019-06-20T06:35:41.809Z,100516.93
2019-06-20T06:38:11.205Z,100529.89
2019-06-20T06:40:40.787Z,100528.45
2019-06-20T06:43:09.788Z,100522.40
2019-06-20T06:45:38.589Z,100522.80
2019-06-20T06:48:07.570Z,100527.61
2019-06-20T06:50:36.280Z,100531.42
2019-06-20T06:53:05.353Z,100538.28
2019-06-20T06:55:34.450Z,100529.69
2019-06-20T06:58:03.084Z,100529.20
2019-06-20T07:00:31.865Z,100525.92
2019-06-20T07:03:00.547Z,100527.34
2019-06-20T07:05:29.499Z,100542.10
2019-06-20T07:07:58.156Z,100541.83
2019-06-20T07:10:26.902Z,100535.67
2019-06-20T07:12:55.763Z,100537.98
2019-06-20T07:15:24.713Z,100540.67
2019-06-20T07:17:53.394Z,100548.20
2019-06-20T07:20:23.255Z,100547.19
2019-06-20T07:22:52.655Z,100548.55
2019-06-20T07:25:22.263Z,100552.73
2019-06-20T07:27:51.325Z,100553.88
2019-06-20T07:30:20.867Z,100553.56
2019-06-20T07:32:49.655Z,100562.09
2019-06-20T07:35:18.776Z,100555.35
2019-06-20T07:37:47.752Z,100561.69
2019-06-20T07:40:18.402Z,100560.45
2019-06-20T07:42:47.678Z,100567.38
2019-06-20T07:45:18.586Z,100575.41
2019-06-20T07:47:47.917Z,100566.28
2019-06-20T07:50:16.675Z,100575.11
2019-06-20T07:53:00.929Z,100573.55
2019-06-20T07:55:16.128Z,100575.33
2019-06-20T07:57:45.280Z,100574.55
2019-06-20T08:00:14.276Z,100580.45
2019-06-20T08:02:43.315Z,100570.44
2019-06-20T08:05:13.332Z,100570.52
2019-06-20T08:07:42.641Z,100567.54
2019-06-20T08:10:12.680Z,100575.47
2019-06-20T08:12:41.849Z,100580.55
2019-06-20T08:15:15.474Z,100582.05
2019-06-20T08:17:42.280Z,100583.92
2019-06-20T08:20:11.559Z,100583.09
2019-06-20T08:22:40.693Z,100590.23
2019-06-20T08:25:09.966Z,100591.73
2019-06-20T08:27:51.994Z,100602.58
2019-06-20T08:30:29.624Z,100612.64
2019-06-20T08:33:01.310Z,100611.47
2019-06-20T08:35:30.776Z,100604.62
2019-06-20T08:38:01.286Z,100606.35
2019-06-20T08:40:32.321Z,100615.63
2019-06-20T08:43:02.154Z,100613.75
2019-06-20T08:45:32.474Z,100620.75
2019-06-20T08:48:02.665Z,100618.28
2019-06-20T08:50:32.317Z,100624.34
2019-06-20T08:53:01.941Z,100625.89
2019-06-20T08:55:31.402Z,100625.77
2019-06-20T08:58:01.640Z,100626.80
2019-06-20T09:00:31.659Z,100635.30
2019-06-20T09:03:00.642Z,100623.75
2019-06-20T09:05:30.890Z,100622.01
2019-06-20T09:10:40.723Z,100634.09
2019-06-20T09:13:11.238Z,100626.25
2019-06-20T09:15:40.059Z,100624.12
2019-06-20T09:18:09.391Z,100632.35
2019-06-20T09:20:38.266Z,100638.49
2019-06-20T09:23:07.053Z,100637.39
2019-06-20T09:25:36.543Z,100641.42
2019-06-20T09:28:06.526Z,100650.95
2019-06-20T09:30:36.495Z,100647.72
2019-06-20T09:33:06.078Z,100644.06
2019-06-20T09:35:35.298Z,100648.66
2019-06-20T09:38:04.578Z,100644.29
2019-06-20T09:40:33.676Z,100649.61
2019-06-20T09:43:03.006Z,100655.69
2019-06-20T09:45:32.171Z,100654.36
2019-06-20T09:48:02.536Z,100657.20
2019-06-20T09:50:31.534Z,100662.20
2019-06-20T09:53:00.980Z,100666.24
2019-06-20T09:55:29.840Z,100660.72
2019-06-20T09:57:58.915Z,100658.61
2019-06-20T10:00:28.605Z,100656.41
2019-06-20T10:02:57.874Z,100666.73
2019-06-20T10:05:27.130Z,100665.92
2019-06-20T10:07:56.719Z,100666.58
2019-06-20T10:10:29.788Z,100666.67
2019-06-20T10:12:58.883Z,100662.22
2019-06-20T10:15:28.798Z,100658.70
2019-06-20T10:17:58.027Z,100660.25
2019-06-20T10:20:27.911Z,100657.03
2019-06-20T10:22:57.498Z,100655.27
2019-06-20T10:25:26.736Z,100653.87
2019-06-20T10:27:55.538Z,100653.66
2019-06-20T10:30:25.626Z,100654.80
2019-06-20T10:32:54.724Z,100653.45
2019-06-20T10:35:23.547Z,100661.63
2019-06-20T10:37:54.761Z,100655.80
2019-06-20T10:40:25.813Z,100655.02
2019-06-20T10:42:54.636Z,100656.67
2019-06-20T10:45:25.343Z,100655.75
2019-06-20T10:47:54.531Z,100670.13
2019-06-20T10:50:24.508Z,100662.94
2019-06-20T10:52:53.849Z,100656.50
2019-06-20T10:55:22.857Z,100660.08
2019-06-20T10:57:52.126Z,100662.64
2019-06-20T11:00:30.893Z,100645.09
2019-06-20T11:02:53.682Z,100672.36
2019-06-20T11:05:23.013Z,100659.20
2019-06-20T11:07:51.928Z,100662.95
2019-06-20T11:10:21.514Z,100662.67
2019-06-20T11:12:55.826Z,100670.18
2019-06-20T11:15:22.727Z,100666.28
2019-06-20T11:17:51.406Z,100663.10
2019-06-20T11:20:20.766Z,100664.00
2019-06-20T11:22:49.957Z,100659.16
2019-06-20T11:25:20.494Z,100669.05
2019-06-20T11:27:49.225Z,100667.48
2019-06-20T11:30:18.451Z,100684.92
2019-06-20T11:32:48.725Z,100690.40
2019-06-20T11:35:18.116Z,100693.05
2019-06-20T11:37:47.335Z,100680.16
2019-06-20T11:40:16.770Z,100686.38
2019-06-20T11:42:46.990Z,100690.25
2019-06-20T11:45:16.315Z,100685.94
2019-06-20T11:47:45.092Z,100684.34
2019-06-20T11:50:14.322Z,100690.13
2019-06-20T11:52:45.634Z,100681.45
2019-06-20T11:55:15.572Z,100691.37
2019-06-20T11:57:44.568Z,100683.52
2019-06-20T12:00:13.633Z,100686.75
2019-06-20T12:02:44.061Z,100681.00
2019-06-20T12:05:14.265Z,100689.47
2019-06-20T12:07:45.336Z,100691.58
2019-06-20T12:10:14.466Z,100698.75
2019-06-20T12:12:44.720Z,100714.02
2019-06-20T12:15:13.904Z,100710.95
2019-06-20T12:17:43.788Z,100711.30
2019-06-20T12:20:14.339Z,100717.80
2019-06-20T12:22:44.919Z,100714.58
2019-06-20T12:25:19.015Z,100714.06
2019-06-20T12:27:49.602Z,100712.73
2019-06-20T12:30:19.525Z,100719.02
2019-06-20T12:32:49.343Z,100726.95
2019-06-20T12:35:19.026Z,100732.51
2019-06-20T12:37:49.806Z,100717.88
2019-06-20T12:40:19.233Z,100746.38
2019-06-20T12:42:49.289Z,100716.84
2019-06-20T12:45:19.042Z,100713.06
2019-06-20T12:47:48.010Z,100717.64
2019-06-20T12:50:17.824Z,100715.71
2019-06-20T12:52:47.645Z,100713.31
2019-06-20T12:55:17.247Z,100727.87
2019-06-20T12:57:46.583Z,100715.72
2019-06-20T13:00:18.394Z,100727.28
2019-06-20T13:02:47.556Z,100722.13
2019-06-20T13:05:17.524Z,100736.86
2019-06-20T13:07:47.237Z,100725.35
2019-06-20T13:10:17.658Z,100729.56
2019-06-20T13:12:46.538Z,100725.41
2019-06-20T13:15:15.615Z,100738.54
2019-06-20T13:17:45.053Z,100735.01
2019-06-20T13:20:14.968Z,100718.98
2019-06-20T13:22:44.808Z,100719.84
2019-06-20T13:25:14.029Z,100727.63
2019-06-20T13:27:43.541Z,100740.27
2019-06-20T13:30:14.130Z,100740.12
2019-06-20T13:32:44.982Z,100731.11
2019-06-20T13:35:14.456Z,100728.72
2019-06-20T13:37:43.864Z,100735.42
2019-06-20T13:40:14.559Z,100725.48
2019-06-20T13:42:44.135Z,100722.90
2019-06-20T13:45:24.369Z,100727.91
2019-06-20T13:47:53.560Z,100725.47
2019-06-20T13:50:23.389Z,100724.30
2019-06-20T13:52:52.279Z,100733.22
2019-06-20T13:55:21.305Z,100736.32
2019-06-20T13:57:50.599Z,100738.73
2019-06-20T14:00:21.010Z,100745.55
2019-06-20T14:02:51.541Z,100744.11
2019-06-20T14:05:20.908Z,100736.98
2019-06-20T14:07:53.494Z,100751.87
2019-06-20T14:10:21.324Z,100749.30
2019-06-20T14:12:49.989Z,100747.53
2019-06-20T14:15:19.225Z,100748.44
2019-06-20T14:17:49.653Z,100751.50
2019-06-20T14:20:18.946Z,100751.02
2019-06-20T14:22:49.407Z,100748.80
2019-06-20T14:25:19.873Z,100752.14
2019-06-20T14:27:49.180Z,100759.76
2019-06-20T14:30:18.458Z,100749.37
2019-06-20T14:32:47.284Z,100755.37
2019-06-20T14:35:17.646Z,100761.48
2019-06-20T14:37:47.829Z,100761.56
2019-06-20T14:40:17.787Z,100756.14
2019-06-20T14:42:47.928Z,100753.98
2019-06-20T14:45:19.361Z,100757.34
2019-06-20T14:47:48.463Z,100761.08
2019-06-20T14:50:17.728Z,100753.77
2019-06-20T14:52:48.557Z,100758.87
2019-06-20T14:55:17.302Z,100758.67
2019-06-20T14:57:46.985Z,100763.84
2019-06-20T15:00:16.908Z,100758.47
2019-06-20T15:02:47.656Z,100770.06
2019-06-20T15:05:18.146Z,100769.07
2019-06-20T15:07:49.453Z,100765.47
2019-06-20T15:10:18.515Z,100769.13
2019-06-20T15:12:49.857Z,100772.44
2019-06-20T15:15:19.015Z,100774.75
2019-06-20T15:17:51.416Z,100775.41
2019-06-20T15:20:19.308Z,100766.02
2019-06-20T15:22:49.251Z,100773.75
2019-06-20T15:25:19.338Z,100770.22
2019-06-20T15:27:50.267Z,100768.20
2019-06-20T15:30:21.850Z,100773.39
2019-06-20T15:33:01.852Z,100786.81
2019-06-20T15:35:21.285Z,100772.58
2019-06-20T15:37:51.504Z,100782.37
2019-06-20T15:40:20.882Z,100785.30
2019-06-20T15:42:51.554Z,100777.89
2019-06-20T15:45:21.730Z,100781.77
2019-06-20T15:47:50.808Z,100783.98
2019-06-20T15:50:19.605Z,100781.76
2019-06-20T15:52:48.713Z,100772.70
2019-06-20T15:55:19.911Z,100783.59
2019-06-20T15:57:49.225Z,100788.00
2019-06-20T16:00:18.582Z,100787.55
2019-06-20T16:02:49.864Z,100797.34
2019-06-20T16:05:19.215Z,100795.41
2019-06-20T16:07:48.624Z,100799.90
2019-06-20T16:10:17.922Z,100793.23
2019-06-20T16:12:46.713Z,100790.06
2019-06-20T16:15:20.838Z,100799.23
2019-06-20T16:17:49.597Z,100798.94
2019-06-20T16:20:18.764Z,100799.68
2019-06-20T16:22:47.618Z,100803.80
2019-06-20T16:25:17.202Z,100802.37
2019-06-20T16:27:46.319Z,100802.75
2019-06-20T16:30:15.282Z,100799.45
2019-06-20T16:32:44.407Z,100804.81
2019-06-20T16:35:13.765Z,100805.61
2019-06-20T16:37:42.893Z,100809.51
2019-06-20T16:40:12.206Z,100806.75
2019-06-20T16:42:41.253Z,100796.70
2019-06-20T16:45:11.669Z,100800.59
2019-06-20T16:47:40.667Z,100799.27
2019-06-20T16:50:09.728Z,100804.66
2019-06-20T16:52:38.913Z,100804.07
2019-06-20T16:55:09.342Z,100799.67
2019-06-20T16:57:38.431Z,100802.88
2019-06-20T17:00:07.734Z,100799.52
2019-06-20T17:02:36.834Z,100801.73
2019-06-20T17:05:06.190Z,100808.14
2019-06-20T17:07:34.945Z,100822.14
2019-06-20T17:10:03.748Z,100821.09
2019-06-20T17:12:32.474Z,100826.77
2019-06-20T17:15:01.468Z,100825.56
2019-06-20T17:17:30.228Z,100836.38
2019-06-20T17:19:59.374Z,100839.25
2019-06-20T17:22:28.780Z,100841.14
2019-06-20T17:24:57.696Z,100837.71
2019-06-20T17:27:26.669Z,100847.27
2019-06-20T17:29:56.085Z,100845.19
2019-06-20T17:32:24.744Z,100836.75
2019-06-20T17:34:53.407Z,100831.19
2019-06-20T17:37:22.177Z,100824.89
2019-06-20T17:39:51.144Z,100823.37
2019-06-20T17:42:20.098Z,100820.45
2019-06-20T17:44:48.908Z,100830.80
2019-06-20T17:47:17.907Z,100831.09
2019-06-20T17:49:46.994Z,100828.36
2019-06-20T17:52:15.985Z,100816.66
2019-06-20T17:54:44.783Z,100813.35
2019-06-20T17:57:13.564Z,100820.45
2019-06-20T17:59:42.975Z,100825.78
2019-06-20T18:02:11.858Z,100832.20
2019-06-20T18:04:40.517Z,100841.20
2019-06-20T18:07:09.188Z,100849.31
2019-06-20T18:09:38.259Z,100842.96
2019-06-20T18:12:07.251Z,100848.20
2019-06-20T18:14:36.110Z,100860.67
2019-06-20T18:17:04.877Z,100856.87
2019-06-20T18:19:34.212Z,100864.69
2019-06-20T18:22:02.982Z,100864.64
2019-06-20T18:24:31.681Z,100869.47
2019-06-20T18:27:00.472Z,100880.60
2019-06-20T18:29:29.353Z,100886.19
2019-06-20T18:31:58.482Z,100870.36
2019-06-20T18:34:30.281Z,100865.55
2019-06-20T18:36:58.419Z,100882.16
2019-06-20T18:39:27.814Z,100876.22
2019-06-20T18:41:57.208Z,100874.50
2019-06-20T18:44:26.398Z,100877.87
2019-06-20T18:46:55.142Z,100874.05
2019-06-20T18:49:24.186Z,100879.07
2019-06-20T18:51:52.964Z,100875.91
2019-06-20T18:54:21.748Z,100871.37
2019-06-20T18:56:50.971Z,100878.27
2019-06-20T18:59:19.836Z,100892.13
2019-06-20T19:01:48.608Z,100887.42
2019-06-20T19:04:17.376Z,100891.00
2019-06-20T19:06:46.414Z,100894.32
2019-06-20T19:09:15.858Z,100897.23
2019-06-20T19:11:45.118Z,100897.03
2019-06-20T19:14:14.426Z,100895.30
2019-06-20T19:16:43.141Z,100899.14
2019-06-20T19:19:12.220Z,100904.89
2019-06-20T19:21:41.321Z,100906.91
2019-06-20T19:24:10.525Z,100900.56
2019-06-20T19:26:39.240Z,100905.16
2019-06-20T19:29:08.023Z,100914.02
2019-06-20T19:31:36.667Z,100921.16
2019-06-20T19:34:05.762Z,100921.22
2019-06-20T19:36:34.863Z,100940.87
2019-06-20T19:39:05.898Z,100934.55
2019-06-20T19:41:34.689Z,100936.43
2019-06-20T19:44:03.377Z,100931.36
2019-06-20T19:46:32.472Z,100937.20
2019-06-20T19:49:01.246Z,100935.53
2019-06-20T19:51:30.031Z,100940.94
2019-06-20T19:53:59.195Z,100945.97
2019-06-20T19:56:28.333Z,100948.20
2019-06-20T19:58:57.137Z,100948.91
2019-06-20T20:01:26.233Z,100947.99
2019-06-20T20:03:55.073Z,100945.86
2019-06-20T20:06:24.113Z,100949.82
2019-06-20T20:08:53.108Z,100948.64
2019-06-20T20:11:21.846Z,100955.89
2019-06-20T20:13:50.902Z,100961.17
2019-06-20T20:16:20.088Z,100958.70
2019-06-20T20:18:49.429Z,100968.12
2019-06-20T20:21:18.163Z,100963.50
2019-06-20T20:23:47.697Z,100961.23
2019-06-20T20:26:16.796Z,100952.63
2019-06-20T20:28:45.900Z,100951.86
2019-06-20T20:31:14.868Z,100955.92
2019-06-20T20:33:43.655Z,100963.48
2019-06-20T20:36:24.515Z,100964.48
2019-06-20T20:38:43.289Z,100970.91
2019-06-20T20:41:12.053Z,100959.42
2019-06-20T20:43:41.189Z,100948.33
2019-06-20T20:46:10.010Z,100952.48
2019-06-20T20:48:38.699Z,100956.39
2019-06-20T20:51:07.681Z,100960.16
2019-06-20T20:53:36.742Z,100964.98
2019-06-20T20:56:05.841Z,100964.66
2019-06-20T20:58:34.552Z,100964.98
2019-06-20T21:01:10.923Z,100959.30
2019-06-20T21:03:40.077Z,100965.30
2019-06-20T21:06:09.379Z,100972.34
2019-06-20T21:08:38.478Z,100980.39
2019-06-20T21:11:07.573Z,100987.03
2019-06-20T21:13:36.475Z,100995.99
2019-06-20T21:16:05.268Z,100987.90
2019-06-20T21:18:34.356Z,100985.28
2019-06-20T21:21:03.153Z,100979.89
2019-06-20T21:23:32.139Z,100974.17
2019-06-20T21:26:00.801Z,100978.16
2019-06-20T21:28:29.767Z,100978.16
2019-06-20T21:30:58.516Z,100984.84
2019-06-20T21:33:27.504Z,100993.82
2019-06-20T21:36:07.890Z,100998.23
2019-06-20T21:38:27.107Z,101000.32
2019-06-20T21:40:55.738Z,100995.28
2019-06-20T21:43:24.413Z,100997.28
2019-06-20T21:45:53.709Z,100997.64
2019-06-20T21:48:22.686Z,101002.79
2019-06-20T21:50:51.518Z,101011.01
2019-06-20T21:53:41.224Z,101005.08
2019-06-20T21:56:10.666Z,101005.25
2019-06-20T21:58:40.063Z,101002.78
2019-06-20T22:01:09.676Z,100999.66
2019-06-20T22:03:38.782Z,101007.02
2019-06-20T22:06:22.691Z,101008.53
2019-06-20T22:08:38.564Z,101002.27
2019-06-20T22:11:07.619Z,100997.46
2019-06-20T22:13:36.589Z,100993.36
2019-06-20T22:16:05.501Z,100996.94
2019-06-20T22:18:34.475Z,101002.16
2019-06-20T22:21:03.222Z,101005.25
2019-06-20T22:23:32.008Z,101002.74
2019-06-20T22:26:01.144Z,101002.42
2019-06-20T22:28:29.958Z,101007.69
2019-06-20T22:30:58.934Z,101005.45
2019-06-20T22:33:28.247Z,101014.22
2019-06-20T22:35:57.014Z,101004.51
2019-06-20T22:38:25.827Z,100997.44
2019-06-20T22:40:54.460Z,101004.14
2019-06-20T22:43:23.488Z,101006.61
2019-06-20T22:45:52.304Z,101013.14
2019-06-20T22:48:20.976Z,101017.55
2019-06-20T22:50:49.808Z,101017.05
2019-06-20T22:53:18.644Z,101017.58
2019-06-20T22:55:47.637Z,101019.69
2019-06-20T22:58:16.732Z,101020.09
2019-06-20T23:00:45.448Z,101018.78
2019-06-20T23:03:14.430Z,101025.28
2019-06-20T23:05:43.509Z,101025.36
2019-06-20T23:08:12.912Z,101025.44
2019-06-20T23:10:41.719Z,101023.00
2019-06-20T23:13:10.511Z,101017.29
2019-06-20T23:15:39.371Z,101021.64
2019-06-20T23:18:08.062Z,101026.35
2019-06-20T23:20:37.372Z,101021.58
2019-06-20T23:23:06.079Z,101027.30
2019-06-20T23:25:36.121Z,101022.53
2019-06-20T23:28:05.272Z,101026.93
2019-06-20T23:30:34.063Z,101026.80
2019-06-20T23:33:02.676Z,101035.31
2019-06-20T23:35:31.647Z,101037.25
2019-06-20T23:38:00.735Z,101042.45
2019-06-20T23:40:29.825Z,101041.46
2019-06-20T23:42:59.028Z,101044.80
2019-06-20T23:45:28.025Z,101047.73
2019-06-20T23:47:56.837Z,101040.04
2019-06-20T23:50:26.114Z,101049.53
2019-06-20T23:53:02.902Z,101046.09
2019-06-20T23:55:32.394Z,101047.70
2019-06-20T23:58:01.806Z,101048.23
